sensor_id;sensor_type;location;lat;lon;timestamp;P1;durP1;ratioP1;P2;durP2;ratioP2
45059;SDS011;30799;49.060;9.312;2023-04-01T00:01:23;4.63;;;2.40;;
45059;SDS011;30799;49.060;9.312;2023-04-01T00:03:50;4.97;;;2.33;;
45059;SDS011;30799;49.060;9.312;2023-04-01T00:06:17;4.85;;;2.47;;
45059;SDS011;30799;49.060;9.312;2023-04-01T00:08:44;6.13;;;2.70;;
45059;SDS011;30799;49.060;9.312;2023-04-01T00:11:11;7.05;;;2.40;;
45059;SDS011;30799;49.060;9.312;2023-04-01T00:13:39;6.57;;;2.83;;
45059;SDS011;30799;49.060;9.312;2023-04-01T00:16:06;5.63;;;2.28;;
45059;SDS011;30799;49.060;9.312;2023-04-01T00:18:46;4.95;;;2.72;;
45059;SDS011;30799;49.060;9.312;2023-04-01T00:21:14;3.22;;;1.90;;
45059;SDS011;30799;49.060;9.312;2023-04-01T00:23:41;5.18;;;2.72;;
45059;SDS011;30799;49.060;9.312;2023-04-01T00:26:07;5.93;;;2.25;;
45059;SDS011;30799;49.060;9.312;2023-04-01T00:28:34;5.68;;;2.45;;
45059;SDS011;30799;49.060;9.312;2023-04-01T00:31:05;4.28;;;2.38;;
45059;SDS011;30799;49.060;9.312;2023-04-01T00:33:33;5.07;;;2.58;;
45059;SDS011;30799;49.060;9.312;2023-04-01T00:36:10;5.55;;;2.40;;
45059;SDS011;30799;49.060;9.312;2023-04-01T00:38:37;4.72;;;2.33;;
45059;SDS011;30799;49.060;9.312;2023-04-01T00:41:04;6.03;;;2.80;;
45059;SDS011;30799;49.060;9.312;2023-04-01T00:43:32;4.03;;;2.55;;
45059;SDS011;30799;49.060;9.312;2023-04-01T00:45:59;4.65;;;2.60;;
45059;SDS011;30799;49.060;9.312;2023-04-01T00:48:27;4.30;;;2.63;;
45059;SDS011;30799;49.060;9.312;2023-04-01T00:51:01;5.38;;;2.38;;
45059;SDS011;30799;49.060;9.312;2023-04-01T00:53:32;5.22;;;2.60;;
45059;SDS011;30799;49.060;9.312;2023-04-01T00:56:07;5.70;;;2.50;;
45059;SDS011;30799;49.060;9.312;2023-04-01T00:58:43;5.53;;;2.63;;
45059;SDS011;30799;49.060;9.312;2023-04-01T01:01:13;4.18;;;2.55;;
45059;SDS011;30799;49.060;9.312;2023-04-01T01:03:41;4.35;;;2.53;;
45059;SDS011;30799;49.060;9.312;2023-04-01T01:06:15;5.10;;;2.55;;
45059;SDS011;30799;49.060;9.312;2023-04-01T01:09:21;6.72;;;2.75;;
45059;SDS011;30799;49.060;9.312;2023-04-01T01:12:08;3.95;;;2.28;;
45059;SDS011;30799;49.060;9.312;2023-04-01T01:20:44;5.20;;;2.28;;
45059;SDS011;30799;49.060;9.312;2023-04-01T01:23:28;4.97;;;2.38;;
45059;SDS011;30799;49.060;9.312;2023-04-01T01:37:12;3.35;;;2.30;;
45059;SDS011;30799;49.060;9.312;2023-04-01T01:39:42;5.13;;;2.40;;
45059;SDS011;30799;49.060;9.312;2023-04-01T01:42:13;3.95;;;2.38;;
45059;SDS011;30799;49.060;9.312;2023-04-01T01:44:42;4.55;;;2.53;;
45059;SDS011;30799;49.060;9.312;2023-04-01T01:47:11;4.57;;;2.15;;
45059;SDS011;30799;49.060;9.312;2023-04-01T01:49:39;4.65;;;2.47;;
45059;SDS011;30799;49.060;9.312;2023-04-01T01:52:08;4.00;;;2.30;;
45059;SDS011;30799;49.060;9.312;2023-04-01T01:54:35;4.85;;;2.30;;
45059;SDS011;30799;49.060;9.312;2023-04-01T01:57:06;4.15;;;2.53;;
45059;SDS011;30799;49.060;9.312;2023-04-01T01:59:36;5.25;;;2.72;;
45059;SDS011;30799;49.060;9.312;2023-04-01T02:02:04;4.32;;;2.55;;
45059;SDS011;30799;49.060;9.312;2023-04-01T02:04:34;2.83;;;2.22;;
45059;SDS011;30799;49.060;9.312;2023-04-01T02:07:03;4.82;;;2.30;;
45059;SDS011;30799;49.060;9.312;2023-04-01T02:09:34;3.70;;;2.00;;
45059;SDS011;30799;49.060;9.312;2023-04-01T02:12:03;3.55;;;2.15;;
45059;SDS011;30799;49.060;9.312;2023-04-01T02:14:37;3.93;;;2.30;;
45059;SDS011;30799;49.060;9.312;2023-04-01T02:17:10;4.10;;;2.00;;
45059;SDS011;30799;49.060;9.312;2023-04-01T02:19:53;5.00;;;2.88;;
45059;SDS011;30799;49.060;9.312;2023-04-01T02:22:24;3.50;;;2.10;;
45059;SDS011;30799;49.060;9.312;2023-04-01T02:24:56;3.95;;;2.25;;
45059;SDS011;30799;49.060;9.312;2023-04-01T02:27:25;3.65;;;2.40;;
45059;SDS011;30799;49.060;9.312;2023-04-01T02:29:52;4.70;;;2.60;;
45059;SDS011;30799;49.060;9.312;2023-04-01T02:32:19;4.35;;;2.13;;
45059;SDS011;30799;49.060;9.312;2023-04-01T02:34:47;3.13;;;2.38;;
45059;SDS011;30799;49.060;9.312;2023-04-01T02:37:14;4.50;;;2.35;;
45059;SDS011;30799;49.060;9.312;2023-04-01T02:39:41;3.60;;;2.20;;
45059;SDS011;30799;49.060;9.312;2023-04-01T02:42:08;4.18;;;2.10;;
45059;SDS011;30799;49.060;9.312;2023-04-01T02:44:35;4.50;;;2.28;;
45059;SDS011;30799;49.060;9.312;2023-04-01T02:47:02;4.88;;;2.50;;
45059;SDS011;30799;49.060;9.312;2023-04-01T02:49:29;4.03;;;2.35;;
45059;SDS011;30799;49.060;9.312;2023-04-01T02:51:56;4.00;;;2.00;;
45059;SDS011;30799;49.060;9.312;2023-04-01T02:54:23;3.78;;;2.15;;
45059;SDS011;30799;49.060;9.312;2023-04-01T02:56:49;2.55;;;1.90;;
45059;SDS011;30799;49.060;9.312;2023-04-01T02:59:16;3.47;;;1.92;;
45059;SDS011;30799;49.060;9.312;2023-04-01T03:01:43;3.30;;;1.92;;
45059;SDS011;30799;49.060;9.312;2023-04-01T03:04:09;3.72;;;2.17;;
45059;SDS011;30799;49.060;9.312;2023-04-01T03:06:36;4.15;;;2.33;;
45059;SDS011;30799;49.060;9.312;2023-04-01T03:09:02;3.85;;;2.40;;
45059;SDS011;30799;49.060;9.312;2023-04-01T03:11:30;4.00;;;1.92;;
45059;SDS011;30799;49.060;9.312;2023-04-01T03:13:57;3.28;;;2.00;;
45059;SDS011;30799;49.060;9.312;2023-04-01T03:16:23;3.78;;;2.20;;
45059;SDS011;30799;49.060;9.312;2023-04-01T03:18:50;3.35;;;2.10;;
45059;SDS011;30799;49.060;9.312;2023-04-01T03:21:19;3.30;;;2.10;;
45059;SDS011;30799;49.060;9.312;2023-04-01T03:23:47;3.17;;;1.80;;
45059;SDS011;30799;49.060;9.312;2023-04-01T03:26:14;4.53;;;1.95;;
45059;SDS011;30799;49.060;9.312;2023-04-01T03:28:41;3.28;;;2.10;;
45059;SDS011;30799;49.060;9.312;2023-04-01T03:31:08;2.90;;;1.77;;
45059;SDS011;30799;49.060;9.312;2023-04-01T03:33:35;3.58;;;2.30;;
45059;SDS011;30799;49.060;9.312;2023-04-01T03:36:02;3.10;;;2.00;;
45059;SDS011;30799;49.060;9.312;2023-04-01T03:38:35;2.92;;;1.98;;
45059;SDS011;30799;49.060;9.312;2023-04-01T03:41:02;3.00;;;2.03;;
45059;SDS011;30799;49.060;9.312;2023-04-01T03:43:29;4.43;;;2.08;;
45059;SDS011;30799;49.060;9.312;2023-04-01T03:45:56;2.70;;;1.65;;
45059;SDS011;30799;49.060;9.312;2023-04-01T03:48:24;3.42;;;1.83;;
45059;SDS011;30799;49.060;9.312;2023-04-01T03:50:51;2.97;;;1.85;;
45059;SDS011;30799;49.060;9.312;2023-04-01T03:53:18;2.85;;;1.80;;
45059;SDS011;30799;49.060;9.312;2023-04-01T03:55:45;3.22;;;2.00;;
45059;SDS011;30799;49.060;9.312;2023-04-01T03:58:12;2.50;;;1.50;;
45059;SDS011;30799;49.060;9.312;2023-04-01T04:00:39;2.40;;;1.70;;
45059;SDS011;30799;49.060;9.312;2023-04-01T04:03:06;3.22;;;2.08;;
45059;SDS011;30799;49.060;9.312;2023-04-01T04:05:33;2.65;;;1.55;;
45059;SDS011;30799;49.060;9.312;2023-04-01T04:08:00;3.22;;;1.95;;
45059;SDS011;30799;49.060;9.312;2023-04-01T04:10:27;3.03;;;1.77;;
45059;SDS011;30799;49.060;9.312;2023-04-01T04:12:55;3.65;;;1.83;;
45059;SDS011;30799;49.060;9.312;2023-04-01T04:15:22;2.90;;;1.85;;
45059;SDS011;30799;49.060;9.312;2023-04-01T04:17:49;4.18;;;1.85;;
45059;SDS011;30799;49.060;9.312;2023-04-01T04:20:15;2.85;;;1.70;;
45059;SDS011;30799;49.060;9.312;2023-04-01T04:22:42;2.60;;;1.38;;
45059;SDS011;30799;49.060;9.312;2023-04-01T04:25:09;2.67;;;1.90;;
45059;SDS011;30799;49.060;9.312;2023-04-01T04:27:35;1.88;;;1.40;;
45059;SDS011;30799;49.060;9.312;2023-04-01T04:30:02;3.05;;;1.80;;
45059;SDS011;30799;49.060;9.312;2023-04-01T04:32:31;3.00;;;1.92;;
45059;SDS011;30799;49.060;9.312;2023-04-01T04:34:58;2.88;;;1.88;;
45059;SDS011;30799;49.060;9.312;2023-04-01T04:37:25;2.90;;;1.77;;
45059;SDS011;30799;49.060;9.312;2023-04-01T04:39:52;2.33;;;1.60;;
45059;SDS011;30799;49.060;9.312;2023-04-01T04:42:19;1.88;;;1.38;;
45059;SDS011;30799;49.060;9.312;2023-04-01T04:44:45;2.38;;;1.80;;
45059;SDS011;30799;49.060;9.312;2023-04-01T04:47:12;1.92;;;1.50;;
45059;SDS011;30799;49.060;9.312;2023-04-01T04:49:39;2.25;;;1.63;;
45059;SDS011;30799;49.060;9.312;2023-04-01T04:52:06;2.40;;;1.75;;
45059;SDS011;30799;49.060;9.312;2023-04-01T04:54:32;2.20;;;1.30;;
45059;SDS011;30799;49.060;9.312;2023-04-01T04:56:59;2.05;;;1.42;;
45059;SDS011;30799;49.060;9.312;2023-04-01T04:59:26;2.55;;;1.58;;
45059;SDS011;30799;49.060;9.312;2023-04-01T05:01:52;2.40;;;1.58;;
45059;SDS011;30799;49.060;9.312;2023-04-01T05:04:19;2.28;;;1.40;;
45059;SDS011;30799;49.060;9.312;2023-04-01T05:06:46;2.58;;;1.70;;
45059;SDS011;30799;49.060;9.312;2023-04-01T05:09:12;2.17;;;1.30;;
45059;SDS011;30799;49.060;9.312;2023-04-01T05:11:39;3.00;;;1.70;;
45059;SDS011;30799;49.060;9.312;2023-04-01T05:14:06;2.42;;;1.75;;
45059;SDS011;30799;49.060;9.312;2023-04-01T05:16:37;2.55;;;1.52;;
45059;SDS011;30799;49.060;9.312;2023-04-01T05:19:04;2.90;;;1.55;;
45059;SDS011;30799;49.060;9.312;2023-04-01T05:21:30;2.72;;;1.67;;
45059;SDS011;30799;49.060;9.312;2023-04-01T05:23:57;2.70;;;1.70;;
45059;SDS011;30799;49.060;9.312;2023-04-01T05:26:24;2.35;;;1.40;;
45059;SDS011;30799;49.060;9.312;2023-04-01T05:28:50;2.85;;;1.60;;
45059;SDS011;30799;49.060;9.312;2023-04-01T05:31:17;2.28;;;1.40;;
45059;SDS011;30799;49.060;9.312;2023-04-01T05:33:44;1.92;;;1.30;;
45059;SDS011;30799;49.060;9.312;2023-04-01T05:36:14;2.38;;;1.50;;
45059;SDS011;30799;49.060;9.312;2023-04-01T05:38:42;2.75;;;1.67;;
45059;SDS011;30799;49.060;9.312;2023-04-01T05:41:11;2.20;;;1.30;;
45059;SDS011;30799;49.060;9.312;2023-04-01T05:43:38;1.92;;;1.23;;
45059;SDS011;30799;49.060;9.312;2023-04-01T05:46:06;1.67;;;1.40;;
45059;SDS011;30799;49.060;9.312;2023-04-01T05:48:33;2.45;;;1.40;;
45059;SDS011;30799;49.060;9.312;2023-04-01T05:51:01;2.08;;;1.50;;
45059;SDS011;30799;49.060;9.312;2023-04-01T05:53:28;1.80;;;1.23;;
45059;SDS011;30799;49.060;9.312;2023-04-01T05:55:55;3.33;;;1.70;;
45059;SDS011;30799;49.060;9.312;2023-04-01T05:58:21;2.30;;;1.50;;
45059;SDS011;30799;49.060;9.312;2023-04-01T06:00:48;3.53;;;1.70;;
45059;SDS011;30799;49.060;9.312;2023-04-01T06:03:31;3.00;;;0.85;;
45059;SDS011;30799;49.060;9.312;2023-04-01T06:05:57;1.48;;;0.63;;
45059;SDS011;30799;49.060;9.312;2023-04-01T06:08:25;3.97;;;0.77;;
45059;SDS011;30799;49.060;9.312;2023-04-01T06:16:54;2.33;;;1.08;;
45059;SDS011;30799;49.060;9.312;2023-04-01T06:22:46;1.88;;;1.60;;
45059;SDS011;30799;49.060;9.312;2023-04-01T06:25:35;3.78;;;1.33;;
45059;SDS011;30799;49.060;9.312;2023-04-01T06:39:38;1.55;;;1.25;;
45059;SDS011;30799;49.060;9.312;2023-04-01T06:45:28;3.63;;;1.23;;
45059;SDS011;30799;49.060;9.312;2023-04-01T06:56:02;2.97;;;1.10;;
45059;SDS011;30799;49.060;9.312;2023-04-01T06:58:41;1.52;;;1.23;;
45059;SDS011;30799;49.060;9.312;2023-04-01T07:01:14;3.15;;;1.42;;
45059;SDS011;30799;49.060;9.312;2023-04-01T07:06:36;1.55;;;1.02;;
45059;SDS011;30799;49.060;9.312;2023-04-01T07:09:37;3.38;;;1.40;;
45059;SDS011;30799;49.060;9.312;2023-04-01T07:12:51;1.90;;;1.15;;
45059;SDS011;30799;49.060;9.312;2023-04-01T07:15:43;3.42;;;1.42;;
45059;SDS011;30799;49.060;9.312;2023-04-01T07:20:51;3.35;;;1.40;;
45059;SDS011;30799;49.060;9.312;2023-04-01T07:23:24;2.30;;;1.15;;
45059;SDS011;30799;49.060;9.312;2023-04-01T07:25:55;2.65;;;1.10;;
45059;SDS011;30799;49.060;9.312;2023-04-01T07:28:29;1.75;;;1.10;;
45059;SDS011;30799;49.060;9.312;2023-04-01T07:31:07;2.85;;;1.20;;
45059;SDS011;30799;49.060;9.312;2023-04-01T07:33:43;2.63;;;1.20;;
45059;SDS011;30799;49.060;9.312;2023-04-01T07:36:23;2.08;;;0.93;;
45059;SDS011;30799;49.060;9.312;2023-04-01T07:41:59;1.73;;;1.02;;
45059;SDS011;30799;49.060;9.312;2023-04-01T07:47:05;1.55;;;1.10;;
45059;SDS011;30799;49.060;9.312;2023-04-01T07:50:38;1.85;;;1.10;;
45059;SDS011;30799;49.060;9.312;2023-04-01T07:52:47;2.08;;;1.20;;
45059;SDS011;30799;49.060;9.312;2023-04-01T07:55:48;1.65;;;1.05;;
45059;SDS011;30799;49.060;9.312;2023-04-01T08:01:13;5.60;;;1.20;;
45059;SDS011;30799;49.060;9.312;2023-04-01T08:06:53;2.60;;;1.30;;
45059;SDS011;30799;49.060;9.312;2023-04-01T08:09:42;1.75;;;1.10;;
45059;SDS011;30799;49.060;9.312;2023-04-01T08:23:17;2.05;;;0.98;;
45059;SDS011;30799;49.060;9.312;2023-04-01T08:25:58;2.17;;;1.10;;
45059;SDS011;30799;49.060;9.312;2023-04-01T08:31:29;1.90;;;1.13;;
45059;SDS011;30799;49.060;9.312;2023-04-01T08:33:57;2.80;;;1.38;;
45059;SDS011;30799;49.060;9.312;2023-04-01T08:39:31;3.22;;;1.05;;
45059;SDS011;30799;49.060;9.312;2023-04-01T08:53:03;3.15;;;0.90;;
45059;SDS011;30799;49.060;9.312;2023-04-01T08:59:13;2.60;;;1.20;;
45059;SDS011;30799;49.060;9.312;2023-04-01T09:07:45;1.27;;;0.90;;
45059;SDS011;30799;49.060;9.312;2023-04-01T09:10:22;2.33;;;1.00;;
45059;SDS011;30799;49.060;9.312;2023-04-01T09:13:20;5.55;;;1.10;;
45059;SDS011;30799;49.060;9.312;2023-04-01T09:18:28;1.58;;;0.82;;
45059;SDS011;30799;49.060;9.312;2023-04-01T09:40:15;2.25;;;0.90;;
45059;SDS011;30799;49.060;9.312;2023-04-01T09:42:45;3.13;;;1.00;;
45059;SDS011;30799;49.060;9.312;2023-04-01T09:50:30;1.27;;;0.80;;
45059;SDS011;30799;49.060;9.312;2023-04-01T09:58:58;2.58;;;0.95;;
45059;SDS011;30799;49.060;9.312;2023-04-01T10:12:48;4.35;;;0.85;;
45059;SDS011;30799;49.060;9.312;2023-04-01T10:35:20;0.73;;;0.50;;
45059;SDS011;30799;49.060;9.312;2023-04-01T10:38:19;2.83;;;0.80;;
45059;SDS011;30799;49.060;9.312;2023-04-01T10:46:41;2.05;;;0.82;;
45059;SDS011;30799;49.060;9.312;2023-04-01T10:52:18;1.40;;;0.90;;
45059;SDS011;30799;49.060;9.312;2023-04-01T10:55:14;1.88;;;0.70;;
45059;SDS011;30799;49.060;9.312;2023-04-01T10:58:00;1.15;;;0.70;;
45059;SDS011;30799;49.060;9.312;2023-04-01T11:12:26;2.85;;;0.80;;
45059;SDS011;30799;49.060;9.312;2023-04-01T11:37:50;2.35;;;0.90;;
45059;SDS011;30799;49.060;9.312;2023-04-01T11:46:23;5.43;;;0.98;;
45059;SDS011;30799;49.060;9.312;2023-04-01T11:54:51;4.15;;;0.90;;
45059;SDS011;30799;49.060;9.312;2023-04-01T12:09:11;3.20;;;0.80;;
45059;SDS011;30799;49.060;9.312;2023-04-01T12:12:00;1.02;;;0.50;;
45059;SDS011;30799;49.060;9.312;2023-04-01T12:22:41;2.20;;;0.63;;
45059;SDS011;30799;49.060;9.312;2023-04-01T12:25:38;1.23;;;0.68;;
45059;SDS011;30799;49.060;9.312;2023-04-01T12:34:00;1.55;;;0.60;;
45059;SDS011;30799;49.060;9.312;2023-04-01T12:39:29;1.05;;;0.70;;
45059;SDS011;30799;49.060;9.312;2023-04-01T12:55:43;0.60;;;0.57;;
45059;SDS011;30799;49.060;9.312;2023-04-01T13:01:29;0.50;;;0.50;;
45059;SDS011;30799;49.060;9.312;2023-04-01T13:04:12;0.73;;;0.43;;
45059;SDS011;30799;49.060;9.312;2023-04-01T13:07:19;0.73;;;0.40;;
45059;SDS011;30799;49.060;9.312;2023-04-01T13:10:02;0.60;;;0.50;;
45059;SDS011;30799;49.060;9.312;2023-04-01T13:19:00;1.17;;;0.60;;
45059;SDS011;30799;49.060;9.312;2023-04-01T13:29:36;4.75;;;0.45;;
45059;SDS011;30799;49.060;9.312;2023-04-01T13:32:18;1.77;;;0.73;;
45059;SDS011;30799;49.060;9.312;2023-04-01T13:35:10;0.73;;;0.57;;
45059;SDS011;30799;49.060;9.312;2023-04-01T13:37:54;0.50;;;0.43;;
45059;SDS011;30799;49.060;9.312;2023-04-01T13:43:49;0.68;;;0.45;;
45059;SDS011;30799;49.060;9.312;2023-04-01T13:46:28;0.80;;;0.47;;
45059;SDS011;30799;49.060;9.312;2023-04-01T13:55:44;1.10;;;0.43;;
45059;SDS011;30799;49.060;9.312;2023-04-01T13:57:48;0.47;;;0.47;;
45059;SDS011;30799;49.060;9.312;2023-04-01T14:04:03;3.50;;;0.40;;
45059;SDS011;30799;49.060;9.312;2023-04-01T14:09:08;8.75;;;6.03;;
45059;SDS011;30799;49.060;9.312;2023-04-01T14:20:29;3.85;;;2.67;;
45059;SDS011;30799;49.060;9.312;2023-04-01T14:26:01;4.65;;;2.65;;
45059;SDS011;30799;49.060;9.312;2023-04-01T14:34:04;3.15;;;2.60;;
45059;SDS011;30799;49.060;9.312;2023-04-01T14:39:59;2.70;;;2.20;;
45059;SDS011;30799;49.060;9.312;2023-04-01T14:48:53;2.75;;;2.30;;
45059;SDS011;30799;49.060;9.312;2023-04-01T14:51:29;2.50;;;2.08;;
45059;SDS011;30799;49.060;9.312;2023-04-01T14:54:17;2.63;;;2.22;;
45059;SDS011;30799;49.060;9.312;2023-04-01T14:57:12;2.72;;;1.73;;
45059;SDS011;30799;49.060;9.312;2023-04-01T14:59:40;2.72;;;2.03;;
45059;SDS011;30799;49.060;9.312;2023-04-01T15:02:29;2.28;;;1.92;;
45059;SDS011;30799;49.060;9.312;2023-04-01T15:05:10;2.60;;;1.85;;
45059;SDS011;30799;49.060;9.312;2023-04-01T15:08:08;2.13;;;1.92;;
45059;SDS011;30799;49.060;9.312;2023-04-01T15:16:16;2.25;;;2.00;;
45059;SDS011;30799;49.060;9.312;2023-04-01T15:24:34;2.20;;;1.83;;
45059;SDS011;30799;49.060;9.312;2023-04-01T15:32:49;1.77;;;1.67;;
45059;SDS011;30799;49.060;9.312;2023-04-01T15:35:39;1.57;;;1.47;;
45059;SDS011;30799;49.060;9.312;2023-04-01T15:41:16;1.70;;;1.60;;
45059;SDS011;30799;49.060;9.312;2023-04-01T15:43:47;2.53;;;1.63;;
45059;SDS011;30799;49.060;9.312;2023-04-01T15:57:35;2.35;;;1.65;;
45059;SDS011;30799;49.060;9.312;2023-04-01T16:06:01;1.25;;;1.15;;
45059;SDS011;30799;49.060;9.312;2023-04-01T16:11:34;2.85;;;1.40;;
45059;SDS011;30799;49.060;9.312;2023-04-01T16:14:28;1.65;;;1.23;;
45059;SDS011;30799;49.060;9.312;2023-04-01T16:23:02;1.40;;;1.20;;
45059;SDS011;30799;49.060;9.312;2023-04-01T16:25:40;1.45;;;1.35;;
45059;SDS011;30799;49.060;9.312;2023-04-01T16:31:10;1.50;;;1.27;;
45059;SDS011;30799;49.060;9.312;2023-04-01T16:36:44;1.58;;;1.15;;
45059;SDS011;30799;49.060;9.312;2023-04-01T16:39:41;1.15;;;1.05;;
45059;SDS011;30799;49.060;9.312;2023-04-01T16:45:42;1.75;;;1.10;;
45059;SDS011;30799;49.060;9.312;2023-04-01T16:54:13;1.77;;;1.10;;
45059;SDS011;30799;49.060;9.312;2023-04-01T16:59:55;0.93;;;0.93;;
45059;SDS011;30799;49.060;9.312;2023-04-01T17:03:25;1.58;;;1.00;;
45059;SDS011;30799;49.060;9.312;2023-04-01T17:05:42;1.83;;;0.70;;
45059;SDS011;30799;49.060;9.312;2023-04-01T17:16:44;1.20;;;0.70;;
45059;SDS011;30799;49.060;9.312;2023-04-01T17:19:37;2.50;;;1.00;;
45059;SDS011;30799;49.060;9.312;2023-04-01T17:35:58;13.13;;;4.40;;
45059;SDS011;30799;49.060;9.312;2023-04-01T17:38:53;14.30;;;5.60;;
45059;SDS011;30799;49.060;9.312;2023-04-01T17:41:31;18.17;;;5.55;;
45059;SDS011;30799;49.060;9.312;2023-04-01T17:58:41;3.55;;;1.33;;
45059;SDS011;30799;49.060;9.312;2023-04-01T18:01:31;4.18;;;1.20;;
45059;SDS011;30799;49.060;9.312;2023-04-01T18:17:12;3.10;;;1.50;;
45059;SDS011;30799;49.060;9.312;2023-04-01T18:25:22;2.25;;;1.25;;
45059;SDS011;30799;49.060;9.312;2023-04-01T18:39:17;2.60;;;0.98;;
45059;SDS011;30799;49.060;9.312;2023-04-01T18:41:53;4.25;;;1.02;;
45059;SDS011;30799;49.060;9.312;2023-04-01T18:44:55;3.35;;;1.38;;
45059;SDS011;30799;49.060;9.312;2023-04-01T18:47:41;3.75;;;1.50;;
45059;SDS011;30799;49.060;9.312;2023-04-01T18:50:15;3.50;;;1.25;;
45059;SDS011;30799;49.060;9.312;2023-04-01T18:52:59;3.15;;;1.30;;
45059;SDS011;30799;49.060;9.312;2023-04-01T18:55:54;3.17;;;1.15;;
45059;SDS011;30799;49.060;9.312;2023-04-01T19:09:27;2.85;;;1.17;;
45059;SDS011;30799;49.060;9.312;2023-04-01T19:25:46;1.30;;;1.08;;
45059;SDS011;30799;49.060;9.312;2023-04-01T19:37:40;1.83;;;1.05;;
45059;SDS011;30799;49.060;9.312;2023-04-01T19:42:51;5.60;;;0.93;;
45059;SDS011;30799;49.060;9.312;2023-04-01T19:46:10;2.22;;;1.20;;
45059;SDS011;30799;49.060;9.312;2023-04-01T19:48:35;3.70;;;1.00;;
45059;SDS011;30799;49.060;9.312;2023-04-01T19:51:29;3.70;;;1.00;;
45059;SDS011;30799;49.060;9.312;2023-04-01T19:53:59;1.13;;;1.00;;
45059;SDS011;30799;49.060;9.312;2023-04-01T19:56:37;3.00;;;1.13;;
45059;SDS011;30799;49.060;9.312;2023-04-01T19:59:21;5.40;;;1.48;;
45059;SDS011;30799;49.060;9.312;2023-04-01T20:04:39;7.10;;;1.10;;
45059;SDS011;30799;49.060;9.312;2023-04-01T20:09:50;2.50;;;0.93;;
45059;SDS011;30799;49.060;9.312;2023-04-01T20:18:08;3.45;;;0.90;;
45059;SDS011;30799;49.060;9.312;2023-04-01T20:20:58;2.40;;;0.90;;
45059;SDS011;30799;49.060;9.312;2023-04-01T20:26:13;1.02;;;0.80;;
45059;SDS011;30799;49.060;9.312;2023-04-01T20:28:48;1.88;;;0.80;;
45059;SDS011;30799;49.060;9.312;2023-04-01T20:31:41;1.15;;;0.50;;
45059;SDS011;30799;49.060;9.312;2023-04-01T20:37:00;2.00;;;1.27;;
45059;SDS011;30799;49.060;9.312;2023-04-01T20:42:34;1.98;;;1.00;;
45059;SDS011;30799;49.060;9.312;2023-04-01T20:51:10;2.80;;;0.80;;
45059;SDS011;30799;49.060;9.312;2023-04-01T21:05:24;1.25;;;0.63;;
45059;SDS011;30799;49.060;9.312;2023-04-01T21:11:07;1.17;;;0.68;;
45059;SDS011;30799;49.060;9.312;2023-04-01T21:24:54;4.20;;;0.90;;
45059;SDS011;30799;49.060;9.312;2023-04-01T21:36:34;2.05;;;1.10;;
45059;SDS011;30799;49.060;9.312;2023-04-01T21:45:05;2.08;;;1.05;;
45059;SDS011;30799;49.060;9.312;2023-04-01T22:01:53;1.08;;;0.73;;
45059;SDS011;30799;49.060;9.312;2023-04-01T22:04:37;1.85;;;0.70;;
45059;SDS011;30799;49.060;9.312;2023-04-01T22:07:14;1.13;;;0.80;;
45059;SDS011;30799;49.060;9.312;2023-04-01T22:10:11;4.38;;;0.73;;
45059;SDS011;30799;49.060;9.312;2023-04-01T22:13:10;1.67;;;0.80;;
45059;SDS011;30799;49.060;9.312;2023-04-01T22:18:34;1.05;;;0.80;;
45059;SDS011;30799;49.060;9.312;2023-04-01T22:21:22;3.00;;;0.77;;
45059;SDS011;30799;49.060;9.312;2023-04-01T22:24:08;1.60;;;0.75;;
45059;SDS011;30799;49.060;9.312;2023-04-01T22:32:50;2.55;;;0.95;;
45059;SDS011;30799;49.060;9.312;2023-04-01T22:38:02;2.08;;;0.68;;
45059;SDS011;30799;49.060;9.312;2023-04-01T22:43:16;1.08;;;0.88;;
45059;SDS011;30799;49.060;9.312;2023-04-01T22:49:01;1.30;;;0.70;;
45059;SDS011;30799;49.060;9.312;2023-04-01T22:54:19;0.80;;;0.70;;
45059;SDS011;30799;49.060;9.312;2023-04-01T22:57:14;0.73;;;0.50;;
45059;SDS011;30799;49.060;9.312;2023-04-01T23:00:04;1.33;;;0.80;;
45059;SDS011;30799;49.060;9.312;2023-04-01T23:03:32;1.35;;;0.60;;
45059;SDS011;30799;49.060;9.312;2023-04-01T23:05:47;1.35;;;0.77;;
45059;SDS011;30799;49.060;9.312;2023-04-01T23:11:06;0.77;;;0.60;;
45059;SDS011;30799;49.060;9.312;2023-04-01T23:14:41;2.08;;;0.85;;
45059;SDS011;30799;49.060;9.312;2023-04-01T23:16:49;1.73;;;0.70;;
45059;SDS011;30799;49.060;9.312;2023-04-01T23:19:37;2.15;;;0.70;;
45059;SDS011;30799;49.060;9.312;2023-04-01T23:27:41;2.25;;;0.50;;
45059;SDS011;30799;49.060;9.312;2023-04-01T23:30:45;2.13;;;0.68;;
45059;SDS011;30799;49.060;9.312;2023-04-01T23:35:50;0.63;;;0.60;;
45059;SDS011;30799;49.060;9.312;2023-04-01T23:38:19;1.75;;;0.60;;
45059;SDS011;30799;49.060;9.312;2023-04-01T23:40:48;0.95;;;0.65;;
45059;SDS011;30799;49.060;9.312;2023-04-01T23:43:27;1.88;;;0.80;;
45059;SDS011;30799;49.060;9.312;2023-04-01T23:46:00;1.50;;;0.63;;
45059;SDS011;30799;49.060;9.312;2023-04-01T23:48:33;1.52;;;0.80;;
45059;SDS011;30799;49.060;9.312;2023-04-01T23:51:03;1.23;;;0.60;;
45059;SDS011;30799;49.060;9.312;2023-04-01T23:53:43;0.88;;;0.80;;
45059;SDS011;30799;49.060;9.312;2023-04-01T23:56:12;1.55;;;0.77;;
45059;SDS011;30799;49.060;9.312;2023-04-01T23:58:49;1.17;;;0.60;;
